createdAt,value
2019-02-25T00:02:00.852Z,3.12
2019-02-25T00:04:26.867Z,3.03
2019-02-25T00:06:52.888Z,3.11
2019-02-25T00:09:18.902Z,3.05
2019-02-25T00:11:44.846Z,3.09
2019-02-25T00:14:10.767Z,3.13
2019-02-25T00:16:36.849Z,3.05
2019-02-25T00:19:02.908Z,3.13
2019-02-25T00:21:28.916Z,3.13
2019-02-25T00:23:54.874Z,3.18
2019-02-25T00:26:20.703Z,3.21
2019-02-25T00:28:47.560Z,3.25
2019-02-25T00:31:13.556Z,3.26
2019-02-25T00:33:39.495Z,3.10
2019-02-25T00:36:05.623Z,3.10
2019-02-25T00:38:31.575Z,3.10
2019-02-25T00:40:57.504Z,3.01
2019-02-25T00:43:23.499Z,2.87
2019-02-25T00:45:49.452Z,2.90
2019-02-25T00:48:15.391Z,2.89
2019-02-25T00:50:43.090Z,2.82
2019-02-25T00:53:09.045Z,2.83
2019-02-25T00:55:35.125Z,2.81
2019-02-25T00:58:01.162Z,2.92
2019-02-25T01:00:27.205Z,2.94
2019-02-25T01:02:53.312Z,2.91
2019-02-25T01:05:19.388Z,2.92
2019-02-25T01:07:45.414Z,3.03
2019-02-25T01:10:12.527Z,3.02
2019-02-25T01:12:40.624Z,3.03
2019-02-25T01:15:07.342Z,2.99
2019-02-25T01:17:33.502Z,3.16
2019-02-25T01:19:59.480Z,3.04
2019-02-25T01:22:25.435Z,3.02
2019-02-25T01:24:51.945Z,3.06
2019-02-25T01:27:17.853Z,2.92
2019-02-25T01:29:43.914Z,2.90
2019-02-25T01:32:10.094Z,3.04
2019-02-25T01:34:36.101Z,3.05
2019-02-25T01:37:02.159Z,3.14
2019-02-25T01:39:27.995Z,3.03
2019-02-25T01:41:53.928Z,3.16
2019-02-25T01:44:19.907Z,3.07
2019-02-25T01:46:45.868Z,3.06
2019-02-25T01:49:11.844Z,3.09
2019-02-25T01:51:37.793Z,3.08
2019-02-25T01:54:03.742Z,3.09
2019-02-25T01:56:29.638Z,3.06
2019-02-25T01:58:55.465Z,3.17
2019-02-25T02:01:21.440Z,3.21
2019-02-25T02:03:47.357Z,3.26
2019-02-25T02:06:13.173Z,3.26
2019-02-25T02:08:39.017Z,3.13
2019-02-25T02:11:05.026Z,3.16
2019-02-25T02:13:30.955Z,3.15
2019-02-25T02:15:56.911Z,2.93
2019-02-25T02:18:22.810Z,2.96
2019-02-25T02:20:48.774Z,3.09
2019-02-25T02:23:14.585Z,3.07
2019-02-25T02:25:40.585Z,2.99
2019-02-25T02:28:06.646Z,2.95
2019-02-25T02:30:32.898Z,2.90
2019-02-25T02:32:58.816Z,2.88
2019-02-25T02:35:24.760Z,2.75
2019-02-25T02:37:50.729Z,2.61
2019-02-25T02:40:16.627Z,2.66
2019-02-25T02:42:52.236Z,2.71
2019-02-25T02:45:24.662Z,2.65
2019-02-25T02:48:00.209Z,2.51
2019-02-25T02:50:26.158Z,2.50
2019-02-25T02:52:52.212Z,2.44
2019-02-25T02:55:18.350Z,2.54
2019-02-25T02:57:44.177Z,2.56
2019-02-25T03:00:12.989Z,2.53
2019-02-25T03:02:39.112Z,2.59
2019-02-25T03:05:08.170Z,2.56
2019-02-25T03:07:34.024Z,2.39
2019-02-25T03:09:59.905Z,2.58
2019-02-25T03:12:25.854Z,2.76
2019-02-25T03:14:51.823Z,2.82
2019-02-25T03:17:17.728Z,2.97
2019-02-25T03:19:43.579Z,2.85
2019-02-25T03:22:09.425Z,2.82
2019-02-25T03:24:35.559Z,2.76
2019-02-25T03:27:01.577Z,2.89
2019-02-25T03:29:27.548Z,2.90
2019-02-25T03:31:53.513Z,2.96
2019-02-25T03:34:19.415Z,2.93
2019-02-25T03:36:45.430Z,2.80
2019-02-25T03:39:11.335Z,2.73
2019-02-25T03:41:37.413Z,2.74
2019-02-25T03:44:03.387Z,2.69
2019-02-25T03:46:29.242Z,2.70
2019-02-25T03:48:55.053Z,2.76
2019-02-25T03:51:20.958Z,2.73
2019-02-25T03:53:46.953Z,2.76
2019-02-25T03:56:12.793Z,2.74
2019-02-25T03:58:38.853Z,2.73
2019-02-25T04:01:04.964Z,2.66
2019-02-25T04:03:30.886Z,2.62
2019-02-25T04:05:56.815Z,2.60
2019-02-25T04:08:22.900Z,2.67
2019-02-25T04:10:48.727Z,2.75
2019-02-25T04:13:14.583Z,2.73
2019-02-25T04:15:42.449Z,2.81
2019-02-25T04:18:08.499Z,2.86
2019-02-25T04:20:34.462Z,2.81
2019-02-25T04:23:00.300Z,2.82
2019-02-25T04:25:26.244Z,2.66
2019-02-25T04:27:52.304Z,2.72
2019-02-25T04:30:18.168Z,2.72
2019-02-25T04:32:44.067Z,2.58
2019-02-25T04:35:11.519Z,2.56
2019-02-25T04:37:41.481Z,2.52
2019-02-25T04:40:12.562Z,2.51
2019-02-25T04:42:38.405Z,2.35
2019-02-25T04:45:07.932Z,2.40
2019-02-25T04:47:33.786Z,2.42
2019-02-25T04:49:59.610Z,2.27
2019-02-25T04:52:25.477Z,2.14
2019-02-25T04:54:51.341Z,2.17
2019-02-25T04:57:17.192Z,2.12
2019-02-25T04:59:43.044Z,1.94
2019-02-25T05:02:08.881Z,2.12
2019-02-25T05:04:34.749Z,2.33
2019-02-25T05:07:00.588Z,2.33
2019-02-25T05:09:26.432Z,2.52
2019-02-25T05:11:52.295Z,2.39
2019-02-25T05:14:18.219Z,2.48
2019-02-25T05:16:44.171Z,2.35
2019-02-25T05:19:10.032Z,2.26
2019-02-25T05:21:35.903Z,2.08
2019-02-25T05:24:01.786Z,2.16
2019-02-25T05:26:27.714Z,2.00
2019-02-25T05:28:53.556Z,2.01
2019-02-25T05:31:19.573Z,1.91
2019-02-25T05:33:45.406Z,2.00
2019-02-25T05:36:11.251Z,2.02
2019-02-25T05:38:37.194Z,2.02
2019-02-25T05:41:03.226Z,1.92
2019-02-25T05:43:29.150Z,1.88
2019-02-25T05:45:55.128Z,1.99
2019-02-25T05:48:20.962Z,2.06
2019-02-25T05:50:46.847Z,1.89
2019-02-25T05:53:12.781Z,1.86
2019-02-25T05:55:38.628Z,1.85
2019-02-25T05:58:04.629Z,1.91
2019-02-25T06:00:32.394Z,1.82
2019-02-25T06:02:58.408Z,1.83
2019-02-25T06:05:24.641Z,1.93
2019-02-25T06:07:50.493Z,2.02
2019-02-25T06:10:16.498Z,1.96
2019-02-25T06:12:42.417Z,2.02
2019-02-25T06:15:15.874Z,2.07
2019-02-25T06:17:41.857Z,2.03
2019-02-25T06:20:10.413Z,2.25
2019-02-25T06:22:36.301Z,2.32
2019-02-25T06:25:03.561Z,2.32
2019-02-25T06:27:30.924Z,2.31
2019-02-25T06:29:57.091Z,2.30
2019-02-25T06:32:23.033Z,2.42
2019-02-25T06:34:48.875Z,2.44
2019-02-25T06:37:14.850Z,2.45
2019-02-25T06:39:40.722Z,2.48
2019-02-25T06:42:06.627Z,2.45
2019-02-25T06:44:32.479Z,2.52
2019-02-25T06:46:58.439Z,2.53
2019-02-25T06:49:24.337Z,2.45
2019-02-25T06:51:50.323Z,2.51
2019-02-25T06:54:16.174Z,2.57
2019-02-25T06:56:42.209Z,2.65
2019-02-25T06:59:08.145Z,2.66
2019-02-25T07:01:33.967Z,2.67
2019-02-25T07:04:10.557Z,2.79
2019-02-25T07:06:41.248Z,3.01
2019-02-25T07:09:09.194Z,3.06
2019-02-25T07:11:36.926Z,3.20
2019-02-25T07:14:04.811Z,3.27
2019-02-25T07:16:44.427Z,3.38
2019-02-25T07:19:15.169Z,3.59
2019-02-25T07:21:49.040Z,3.59
2019-02-25T07:24:16.789Z,3.68
2019-02-25T07:26:45.893Z,3.73
2019-02-25T07:29:25.976Z,3.84
2019-02-25T07:31:53.739Z,3.88
2019-02-25T07:34:36.912Z,3.99
2019-02-25T07:37:04.835Z,4.17
2019-02-25T07:39:35.570Z,4.17
2019-02-25T07:42:06.112Z,4.28
2019-02-25T07:44:40.075Z,4.53
2019-02-25T07:47:10.871Z,4.47
2019-02-25T07:49:41.586Z,4.68
2019-02-25T07:52:24.502Z,4.79
2019-02-25T07:54:52.375Z,4.79
2019-02-25T07:57:20.148Z,4.98
2019-02-25T07:59:47.927Z,4.89
2019-02-25T08:02:27.692Z,5.00
2019-02-25T08:04:58.429Z,5.38
2019-02-25T08:07:26.256Z,5.38
2019-02-25T08:10:10.633Z,5.51
2019-02-25T08:12:51.014Z,5.56
2019-02-25T08:15:21.449Z,5.67
2019-02-25T08:17:51.769Z,5.63
2019-02-25T08:20:19.573Z,5.75
2019-02-25T08:23:03.784Z,5.87
2019-02-25T08:25:34.325Z,5.87
2019-02-25T08:28:18.570Z,5.94
2019-02-25T08:30:52.177Z,6.10
2019-02-25T08:33:32.617Z,6.27
2019-02-25T08:36:16.275Z,6.40
2019-02-25T08:38:59.071Z,6.41
2019-02-25T08:41:35.897Z,6.48
2019-02-25T08:44:15.874Z,6.58
2019-02-25T08:46:52.572Z,6.90
2019-02-25T08:49:20.360Z,6.98
2019-02-25T08:51:46.241Z,7.18
2019-02-25T08:54:12.396Z,7.30
2019-02-25T08:56:38.462Z,7.45
2019-02-25T08:59:04.463Z,7.52
2019-02-25T09:01:30.534Z,7.56
2019-02-25T09:03:56.461Z,7.70
2019-02-25T09:06:22.438Z,7.89
2019-02-25T09:08:48.263Z,8.06
2019-02-25T09:11:14.577Z,8.26
2019-02-25T09:13:40.918Z,8.32
2019-02-25T09:16:06.946Z,8.45
2019-02-25T09:18:33.034Z,8.51
2019-02-25T09:20:58.974Z,8.54
2019-02-25T09:23:24.998Z,8.65
2019-02-25T09:25:51.053Z,8.70
2019-02-25T09:28:17.075Z,8.85
2019-02-25T09:30:43.162Z,8.77
2019-02-25T09:33:09.087Z,8.75
2019-02-25T09:35:34.912Z,8.95
2019-02-25T09:38:00.841Z,9.01
2019-02-25T09:40:26.793Z,9.06
2019-02-25T09:42:56.869Z,9.13
2019-02-25T09:45:22.863Z,9.18
2019-02-25T09:47:48.692Z,9.33
2019-02-25T09:50:21.563Z,9.43
2019-02-25T09:52:47.526Z,9.44
2019-02-25T09:55:13.579Z,9.29
2019-02-25T09:57:39.460Z,9.43
2019-02-25T10:00:11.955Z,9.58
2019-02-25T10:02:37.802Z,9.57
2019-02-25T10:05:05.705Z,9.67
2019-02-25T10:07:31.545Z,9.79
2019-02-25T10:09:57.472Z,9.85
2019-02-25T10:12:23.326Z,9.98
2019-02-25T10:14:49.647Z,9.95
2019-02-25T10:17:23.512Z,10.05
2019-02-25T10:19:43.610Z,10.08
2019-02-25T10:22:09.464Z,10.28
2019-02-25T10:24:35.436Z,10.33
2019-02-25T10:27:01.251Z,10.27
2019-02-25T10:29:27.189Z,10.33
2019-02-25T10:31:53.161Z,10.43
2019-02-25T10:34:19.131Z,10.38
2019-02-25T10:36:46.087Z,10.47
2019-02-25T10:39:14.924Z,10.55
2019-02-25T10:41:40.628Z,10.65
2019-02-25T10:44:08.514Z,10.80
2019-02-25T10:46:34.299Z,10.92
2019-02-25T10:49:10.914Z,11.06
2019-02-25T10:51:28.069Z,11.01
2019-02-25T10:53:53.921Z,11.10
2019-02-25T10:56:25.441Z,11.17
2019-02-25T10:58:51.643Z,11.04
2019-02-25T11:01:19.895Z,11.08
2019-02-25T11:03:46.165Z,11.20
2019-02-25T11:06:13.248Z,11.23
2019-02-25T11:08:41.549Z,11.06
2019-02-25T11:11:13.624Z,11.05
2019-02-25T11:13:39.470Z,11.25
2019-02-25T11:16:05.792Z,11.20
2019-02-25T11:18:31.598Z,11.22
2019-02-25T11:20:59.072Z,11.26
2019-02-25T11:23:25.403Z,11.31
2019-02-25T11:25:51.525Z,11.50
2019-02-25T11:28:25.592Z,11.60
2019-02-25T11:30:49.138Z,11.66
2019-02-25T11:33:14.765Z,11.44
2019-02-25T11:35:41.532Z,11.73
2019-02-25T11:38:08.684Z,11.63
2019-02-25T11:40:36.555Z,11.64
2019-02-25T11:43:02.646Z,11.67
2019-02-25T11:45:29.010Z,11.83
2019-02-25T11:47:54.955Z,11.77
2019-02-25T11:50:20.902Z,11.66
2019-02-25T11:52:46.981Z,11.89
2019-02-25T11:55:14.422Z,12.06
2019-02-25T11:57:40.809Z,12.19
2019-02-25T12:00:16.693Z,12.24
2019-02-25T12:02:42.990Z,12.19
2019-02-25T12:05:09.820Z,12.16
2019-02-25T12:07:38.844Z,12.38
2019-02-25T12:10:08.114Z,12.31
2019-02-25T12:12:34.158Z,12.55
2019-02-25T12:15:00.513Z,12.54
2019-02-25T12:17:26.436Z,12.47
2019-02-25T12:19:52.283Z,12.66
2019-02-25T12:22:20.856Z,12.64
2019-02-25T12:24:46.778Z,12.90
2019-02-25T12:27:12.705Z,12.88
2019-02-25T12:29:38.679Z,12.82
2019-02-25T12:32:04.531Z,13.10
2019-02-25T12:34:30.444Z,13.30
2019-02-25T12:36:56.290Z,13.30
2019-02-25T12:39:22.246Z,13.82
2019-02-25T12:41:48.263Z,14.30
2019-02-25T12:44:14.372Z,21.18
2019-02-25T12:46:40.329Z,23.41
2019-02-25T12:49:06.203Z,23.58
2019-02-25T12:51:32.033Z,27.40
2019-02-25T12:53:57.884Z,28.40
2019-02-25T12:56:23.903Z,28.44
2019-02-25T12:58:49.742Z,25.60
2019-02-25T13:01:15.671Z,26.90
2019-02-25T13:03:41.643Z,22.90
2019-02-25T13:06:07.480Z,25.00
2019-02-25T13:08:33.337Z,23.75
2019-02-25T13:10:59.308Z,26.27
2019-02-25T13:13:25.346Z,30.36
2019-02-25T13:15:51.225Z,28.38
2019-02-25T13:18:17.077Z,27.98
2019-02-25T13:20:43.024Z,28.38
2019-02-25T13:23:09.004Z,30.48
2019-02-25T13:25:34.836Z,27.98
2019-02-25T13:28:02.099Z,28.67
2019-02-25T13:30:28.650Z,31.68
2019-02-25T13:32:54.514Z,34.42
2019-02-25T13:35:20.601Z,27.64
2019-02-25T13:37:46.541Z,32.45
2019-02-25T13:40:14.796Z,30.74
2019-02-25T13:42:40.953Z,37.69
2019-02-25T13:45:20.879Z,36.45
2019-02-25T13:47:46.843Z,32.36
2019-02-25T13:50:17.355Z,31.05
2019-02-25T13:52:48.532Z,31.23
2019-02-25T13:55:12.088Z,26.51
2019-02-25T13:57:38.205Z,28.72
2019-02-25T14:00:27.345Z,30.18
2019-02-25T14:02:53.365Z,30.56
2019-02-25T14:05:19.281Z,28.43
2019-02-25T14:07:45.329Z,30.73
2019-02-25T14:10:12.937Z,28.11
2019-02-25T14:12:38.889Z,32.46
2019-02-25T14:15:07.184Z,29.11
2019-02-25T14:17:33.380Z,25.54
2019-02-25T14:19:59.319Z,27.50
2019-02-25T14:22:25.184Z,27.42
2019-02-25T14:24:51.336Z,29.03
2019-02-25T14:27:17.331Z,29.40
2019-02-25T14:29:44.666Z,29.97
2019-02-25T14:32:12.036Z,31.42
2019-02-25T14:34:37.914Z,30.77
2019-02-25T14:37:04.809Z,33.45
2019-02-25T14:39:33.018Z,29.51
2019-02-25T14:41:59.261Z,30.47
2019-02-25T14:44:29.815Z,27.60
2019-02-25T14:46:56.582Z,30.87
2019-02-25T14:49:22.619Z,29.50
2019-02-25T14:51:48.687Z,27.07
2019-02-25T14:54:14.752Z,29.42
2019-02-25T14:56:43.007Z,30.11
2019-02-25T14:59:13.237Z,27.84
2019-02-25T15:01:38.359Z,29.00
2019-02-25T15:04:06.338Z,28.74
2019-02-25T15:06:32.971Z,31.77
2019-02-25T15:09:01.785Z,29.02
2019-02-25T15:11:28.022Z,28.25
2019-02-25T15:13:54.127Z,30.63
2019-02-25T15:16:20.037Z,28.35
2019-02-25T15:18:45.867Z,29.59
2019-02-25T15:21:15.232Z,35.93
2019-02-25T15:23:39.692Z,30.35
2019-02-25T15:26:06.771Z,29.86
2019-02-25T15:28:33.542Z,32.40
2019-02-25T15:31:00.106Z,32.06
2019-02-25T15:33:27.432Z,26.11
2019-02-25T15:35:53.663Z,23.89
2019-02-25T15:38:19.613Z,18.52
2019-02-25T15:40:45.548Z,18.58
2019-02-25T15:43:15.884Z,18.16
2019-02-25T15:45:42.694Z,18.05
2019-02-25T15:48:14.944Z,17.87
2019-02-25T15:50:44.042Z,17.49
2019-02-25T15:53:10.030Z,16.93
2019-02-25T15:55:37.295Z,16.63
2019-02-25T15:58:03.946Z,16.59
2019-02-25T16:00:32.143Z,16.60
2019-02-25T16:02:58.339Z,16.54
2019-02-25T16:05:27.401Z,16.46
2019-02-25T16:07:55.942Z,16.56
2019-02-25T16:10:23.364Z,16.21
2019-02-25T16:12:51.197Z,16.00
2019-02-25T16:15:18.896Z,15.90
2019-02-25T16:17:46.255Z,15.74
2019-02-25T16:20:17.556Z,15.82
2019-02-25T16:22:43.956Z,15.79
2019-02-25T16:25:18.479Z,15.80
2019-02-25T16:27:45.666Z,15.76
2019-02-25T16:30:13.573Z,15.65
2019-02-25T16:32:40.535Z,15.42
2019-02-25T16:35:10.429Z,15.22
2019-02-25T16:37:36.352Z,15.09
2019-02-25T16:40:06.512Z,14.88
2019-02-25T16:42:33.149Z,14.69
2019-02-25T16:45:01.420Z,14.58
2019-02-25T16:47:32.802Z,14.32
2019-02-25T16:50:00.919Z,14.15
2019-02-25T16:52:27.138Z,14.27
2019-02-25T16:54:53.278Z,14.11
2019-02-25T16:57:21.212Z,13.93
2019-02-25T16:59:46.986Z,13.60
2019-02-25T17:02:14.178Z,13.20
2019-02-25T17:04:40.375Z,13.23
2019-02-25T17:07:06.210Z,13.01
2019-02-25T17:09:34.232Z,13.30
2019-02-25T17:12:02.314Z,13.14
2019-02-25T17:14:28.401Z,12.75
2019-02-25T17:16:56.765Z,12.52
2019-02-25T17:19:22.548Z,12.42
2019-02-25T17:21:48.673Z,12.41
2019-02-25T17:24:14.612Z,12.29
2019-02-25T17:26:40.622Z,12.22
2019-02-25T17:29:06.573Z,12.06
2019-02-25T17:31:34.337Z,11.89
2019-02-25T17:34:00.186Z,11.83
2019-02-25T17:36:26.185Z,11.71
2019-02-25T17:38:52.343Z,11.56
2019-02-25T17:41:18.189Z,11.61
2019-02-25T17:43:44.178Z,11.40
2019-02-25T17:46:11.982Z,11.21
2019-02-25T17:48:37.874Z,11.26
2019-02-25T17:51:04.126Z,11.38
2019-02-25T17:53:31.059Z,11.37
2019-02-25T17:55:59.732Z,11.22
2019-02-25T17:58:25.934Z,11.30
2019-02-25T18:00:53.974Z,11.14
2019-02-25T18:03:21.698Z,11.09
2019-02-25T18:05:48.013Z,11.02
2019-02-25T18:08:15.338Z,11.12
2019-02-25T18:10:43.152Z,11.04
2019-02-25T18:13:10.873Z,10.94
2019-02-25T18:15:37.386Z,10.83
2019-02-25T18:18:06.897Z,10.94
2019-02-25T18:20:31.562Z,10.73
2019-02-25T18:22:57.718Z,10.58
2019-02-25T18:25:23.769Z,10.79
2019-02-25T18:27:50.504Z,10.84
2019-02-25T18:30:21.783Z,10.81
2019-02-25T18:32:48.097Z,10.72
2019-02-25T18:35:16.357Z,10.73
2019-02-25T18:37:43.490Z,10.54
2019-02-25T18:40:12.187Z,10.52
2019-02-25T18:42:40.843Z,10.48
2019-02-25T18:45:11.169Z,10.37
2019-02-25T18:47:38.298Z,10.40
2019-02-25T18:50:07.965Z,10.29
2019-02-25T18:52:35.804Z,10.48
2019-02-25T18:55:04.906Z,10.69
2019-02-25T18:57:30.965Z,10.75
2019-02-25T18:59:59.241Z,10.61
2019-02-25T19:02:24.944Z,10.50
2019-02-25T19:04:50.906Z,10.45
2019-02-25T19:07:17.041Z,10.50
2019-02-25T19:09:46.685Z,10.48
2019-02-25T19:12:10.815Z,10.34
2019-02-25T19:14:36.651Z,10.37
2019-02-25T19:17:04.871Z,10.36
2019-02-25T19:19:31.427Z,10.41
2019-02-25T19:21:58.884Z,10.37
2019-02-25T19:24:25.142Z,10.36
2019-02-25T19:26:51.056Z,10.37
2019-02-25T19:29:19.422Z,10.35
2019-02-25T19:31:45.368Z,10.30
2019-02-25T19:34:15.537Z,10.32
2019-02-25T19:36:41.197Z,10.49
2019-02-25T19:39:11.653Z,10.41
2019-02-25T19:41:38.041Z,10.31
2019-02-25T19:44:04.221Z,10.27
2019-02-25T19:46:32.064Z,10.22
2019-02-25T19:48:58.112Z,10.14
2019-02-25T19:51:29.698Z,10.06
2019-02-25T19:53:55.584Z,9.91
2019-02-25T19:56:21.634Z,9.76
2019-02-25T19:58:47.567Z,9.80
2019-02-25T20:01:13.453Z,9.96
2019-02-25T20:03:40.054Z,9.82
2019-02-25T20:06:11.143Z,9.76
2019-02-25T20:08:35.442Z,9.65
2019-02-25T20:11:01.343Z,9.71
2019-02-25T20:13:27.422Z,9.59
2019-02-25T20:15:55.578Z,9.77
2019-02-25T20:18:21.195Z,9.73
2019-02-25T20:20:47.354Z,9.82
2019-02-25T20:23:13.215Z,9.77
2019-02-25T20:25:42.408Z,9.70
2019-02-25T20:28:07.060Z,9.64
2019-02-25T20:30:33.198Z,9.26
2019-02-25T20:33:00.803Z,9.12
2019-02-25T20:35:28.990Z,9.14
2019-02-25T20:37:55.694Z,9.23
2019-02-25T20:40:24.165Z,9.04
2019-02-25T20:42:53.039Z,9.10
2019-02-25T20:45:31.036Z,8.87
2019-02-25T20:47:57.190Z,8.91
2019-02-25T20:50:24.566Z,8.99
2019-02-25T20:52:52.581Z,8.79
2019-02-25T20:55:18.531Z,8.73
2019-02-25T20:57:44.563Z,8.71
2019-02-25T21:00:16.027Z,8.76
2019-02-25T21:02:43.350Z,8.57
2019-02-25T21:05:11.568Z,8.65
2019-02-25T21:07:38.130Z,8.47
2019-02-25T21:10:08.822Z,8.66
2019-02-25T21:12:34.906Z,8.69
2019-02-25T21:15:01.140Z,8.52
2019-02-25T21:17:28.502Z,8.33
2019-02-25T21:19:56.115Z,8.15
2019-02-25T21:22:23.356Z,8.04
2019-02-25T21:24:54.022Z,8.40
2019-02-25T21:27:18.370Z,8.19
2019-02-25T21:29:44.405Z,8.14
2019-02-25T21:32:12.777Z,8.04
2019-02-25T21:34:38.375Z,7.80
2019-02-25T21:37:04.425Z,7.66
2019-02-25T21:39:31.985Z,7.75
2019-02-25T21:41:58.174Z,7.65
2019-02-25T21:44:26.212Z,7.52
2019-02-25T21:46:54.048Z,7.62
2019-02-25T21:49:24.958Z,7.68
2019-02-25T21:51:48.188Z,7.68
2019-02-25T21:54:14.099Z,7.52
2019-02-25T21:56:39.941Z,7.70
2019-02-25T21:59:06.602Z,7.70
2019-02-25T22:01:34.625Z,7.45
2019-02-25T22:04:01.535Z,7.38
2019-02-25T22:06:29.583Z,7.36
2019-02-25T22:08:56.808Z,7.44
2019-02-25T22:11:23.074Z,7.27
2019-02-25T22:13:48.891Z,7.09
2019-02-25T22:16:14.831Z,7.20
2019-02-25T22:18:40.750Z,7.21
2019-02-25T22:21:09.251Z,7.10
2019-02-25T22:23:35.441Z,7.18
2019-02-25T22:26:02.410Z,7.37
2019-02-25T22:28:30.464Z,7.32
2019-02-25T22:30:56.232Z,7.19
2019-02-25T22:33:27.559Z,7.11
2019-02-25T22:35:51.810Z,6.99
2019-02-25T22:38:18.047Z,6.97
2019-02-25T22:40:43.891Z,6.96
2019-02-25T22:43:12.081Z,6.95
2019-02-25T22:45:39.597Z,6.89
2019-02-25T22:48:05.772Z,6.79
2019-02-25T22:50:33.875Z,6.91
2019-02-25T22:53:01.634Z,6.88
2019-02-25T22:55:27.851Z,6.88
2019-02-25T22:57:54.201Z,6.76
2019-02-25T23:00:33.738Z,6.87
2019-02-25T23:02:59.981Z,6.88
2019-02-25T23:05:26.518Z,6.93
2019-02-25T23:07:55.006Z,6.98
2019-02-25T23:10:21.944Z,6.95
2019-02-25T23:12:48.794Z,6.91
2019-02-25T23:15:14.906Z,6.90
2019-02-25T23:17:42.854Z,6.99
2019-02-25T23:20:09.836Z,7.04
2019-02-25T23:22:36.646Z,7.00
2019-02-25T23:25:06.680Z,6.83
2019-02-25T23:27:34.310Z,6.78
2019-02-25T23:30:00.599Z,6.79
2019-02-25T23:32:26.416Z,6.86
2019-02-25T23:34:53.341Z,6.86
2019-02-25T23:37:21.757Z,6.96
2019-02-25T23:39:48.070Z,7.08
2019-02-25T23:42:15.776Z,7.24
2019-02-25T23:44:41.811Z,7.22
2019-02-25T23:47:08.963Z,7.29
2019-02-25T23:49:36.442Z,7.35
2019-02-25T23:52:03.216Z,7.27
2019-02-25T23:54:29.057Z,7.32
2019-02-25T23:57:00.170Z,7.33
2019-02-25T23:59:26.914Z,7.39
